createdAt,value
2018-03-09T00:01:10.430Z,2.80
2018-03-09T00:03:37.929Z,2.80
2018-03-09T00:06:05.419Z,2.70
2018-03-09T00:08:32.934Z,2.70
2018-03-09T00:11:00.440Z,2.80
2018-03-09T00:13:27.983Z,2.70
2018-03-09T00:15:55.469Z,2.70
2018-03-09T00:18:22.943Z,2.60
2018-03-09T00:20:50.428Z,2.60
2018-03-09T00:23:18.683Z,2.50
2018-03-09T00:25:46.179Z,2.50
2018-03-09T00:28:14.428Z,2.50
2018-03-09T00:30:41.931Z,2.50
2018-03-09T00:33:09.436Z,2.50
2018-03-09T00:35:36.933Z,2.50
2018-03-09T00:38:05.194Z,2.60
2018-03-09T00:40:32.709Z,2.60
2018-03-09T00:43:00.187Z,2.50
2018-03-09T00:45:27.672Z,2.60
2018-03-09T00:47:55.160Z,2.60
2018-03-09T00:50:22.648Z,2.50
2018-03-09T00:52:50.131Z,2.50
2018-03-09T00:55:17.612Z,2.50
2018-03-09T00:57:45.113Z,2.50
2018-03-09T01:00:12.586Z,2.50
2018-03-09T01:02:40.077Z,2.30
2018-03-09T01:05:08.357Z,2.40
2018-03-09T01:07:36.615Z,2.40
2018-03-09T01:10:04.771Z,2.40
2018-03-09T01:12:32.327Z,2.50
2018-03-09T01:14:59.841Z,2.50
2018-03-09T01:17:27.408Z,2.50
2018-03-09T01:19:54.898Z,2.50
2018-03-09T01:22:22.425Z,2.40
2018-03-09T01:24:49.918Z,2.40
2018-03-09T01:27:17.420Z,2.40
2018-03-09T01:29:45.693Z,2.20
2018-03-09T01:32:13.205Z,2.20
2018-03-09T01:34:40.713Z,2.20
2018-03-09T01:37:08.981Z,2.10
2018-03-09T01:39:37.239Z,2.00
2018-03-09T01:42:04.752Z,2.00
2018-03-09T01:44:32.236Z,2.10
2018-03-09T01:46:59.739Z,2.00
2018-03-09T01:49:27.218Z,2.00
2018-03-09T01:51:54.715Z,2.00
2018-03-09T01:54:22.196Z,2.00
2018-03-09T01:56:50.474Z,2.00
2018-03-09T01:59:19.021Z,2.00
2018-03-09T02:01:46.568Z,1.90
2018-03-09T02:04:14.096Z,1.90
2018-03-09T02:06:41.577Z,1.90
2018-03-09T02:09:09.060Z,2.00
2018-03-09T02:11:36.587Z,2.00
2018-03-09T02:14:04.069Z,2.00
2018-03-09T02:16:31.598Z,2.00
2018-03-09T02:18:59.091Z,2.00
2018-03-09T02:21:26.581Z,2.00
2018-03-09T02:23:54.286Z,2.00
2018-03-09T02:26:21.786Z,2.00
2018-03-09T02:28:49.318Z,2.00
2018-03-09T02:31:16.832Z,2.10
2018-03-09T02:33:44.379Z,2.20
2018-03-09T02:36:12.642Z,2.20
2018-03-09T02:38:40.153Z,2.20
2018-03-09T02:41:07.675Z,2.20
2018-03-09T02:43:35.213Z,2.20
2018-03-09T02:46:02.713Z,2.30
2018-03-09T02:48:30.199Z,2.20
2018-03-09T02:50:57.715Z,2.20
2018-03-09T02:53:25.197Z,2.10
2018-03-09T02:55:52.738Z,2.10
2018-03-09T02:58:20.250Z,2.10
2018-03-09T03:00:47.769Z,2.10
2018-03-09T03:03:15.259Z,2.10
2018-03-09T03:05:42.785Z,2.10
2018-03-09T03:08:10.263Z,2.10
2018-03-09T03:10:37.779Z,2.10
2018-03-09T03:13:05.259Z,2.10
2018-03-09T03:15:32.752Z,2.10
2018-03-09T03:18:00.242Z,2.00
2018-03-09T03:20:28.507Z,2.00
2018-03-09T03:22:56.772Z,2.00
2018-03-09T03:25:24.257Z,2.10
2018-03-09T03:27:51.771Z,2.00
2018-03-09T03:30:19.259Z,1.90
2018-03-09T03:32:46.740Z,1.90
2018-03-09T03:35:14.488Z,1.90
2018-03-09T03:37:42.008Z,1.80
2018-03-09T03:40:09.497Z,1.90
2018-03-09T03:42:37.768Z,1.80
2018-03-09T03:45:06.046Z,1.80
2018-03-09T03:47:34.344Z,1.90
2018-03-09T03:50:01.878Z,1.80
2018-03-09T03:52:29.381Z,1.80
2018-03-09T03:54:56.919Z,1.80
2018-03-09T03:57:24.420Z,1.90
2018-03-09T03:59:51.906Z,1.90
2018-03-09T04:02:19.384Z,1.90
2018-03-09T04:04:47.636Z,1.90
2018-03-09T04:07:15.189Z,1.80
2018-03-09T04:09:42.702Z,1.90
2018-03-09T04:12:10.209Z,1.90
2018-03-09T04:14:37.679Z,1.90
2018-03-09T04:17:05.199Z,1.90
2018-03-09T04:19:32.721Z,1.90
2018-03-09T04:22:01.376Z,1.80
2018-03-09T04:24:29.647Z,1.90
2018-03-09T04:26:57.137Z,1.90
2018-03-09T04:29:24.627Z,1.90
2018-03-09T04:31:52.107Z,2.00
2018-03-09T04:34:19.626Z,2.00
2018-03-09T04:36:47.127Z,1.90
2018-03-09T04:39:14.651Z,2.00
2018-03-09T04:41:42.132Z,2.00
2018-03-09T04:44:09.632Z,2.00
2018-03-09T04:46:37.893Z,2.00
2018-03-09T04:49:06.158Z,2.00
2018-03-09T04:51:33.654Z,1.90
2018-03-09T04:54:01.148Z,2.00
2018-03-09T04:56:28.673Z,2.00
2018-03-09T04:58:56.163Z,2.00
2018-03-09T05:01:23.679Z,2.00
2018-03-09T05:03:51.172Z,2.00
2018-03-09T05:06:18.663Z,2.00
2018-03-09T05:08:46.935Z,2.00
2018-03-09T05:11:14.415Z,2.10
2018-03-09T05:13:42.682Z,2.10
2018-03-09T05:16:10.951Z,2.10
2018-03-09T05:18:39.187Z,2.10
2018-03-09T05:21:06.690Z,2.10
2018-03-09T05:23:34.996Z,2.00
2018-03-09T05:26:02.495Z,2.00
2018-03-09T05:28:29.970Z,2.10
2018-03-09T05:30:57.487Z,2.10
2018-03-09T05:33:24.992Z,2.10
2018-03-09T05:35:52.534Z,2.10
2018-03-09T05:38:20.023Z,2.20
2018-03-09T05:40:47.517Z,2.20
2018-03-09T05:43:15.017Z,2.20
2018-03-09T05:45:42.536Z,2.20
2018-03-09T05:48:10.067Z,2.30
2018-03-09T05:50:37.612Z,2.30
2018-03-09T05:53:05.861Z,2.30
2018-03-09T05:55:33.360Z,2.30
2018-03-09T05:58:00.878Z,2.40
2018-03-09T06:00:28.356Z,2.40
2018-03-09T06:02:56.647Z,2.40
2018-03-09T06:05:24.147Z,2.30
2018-03-09T06:07:51.648Z,2.30
2018-03-09T06:10:19.923Z,2.30
2018-03-09T06:12:48.162Z,2.40
2018-03-09T06:15:15.672Z,2.40
2018-03-09T06:17:43.165Z,2.40
2018-03-09T06:20:10.668Z,2.50
2018-03-09T06:22:38.197Z,2.60
2018-03-09T06:25:05.684Z,2.60
2018-03-09T06:27:38.820Z,2.60
2018-03-09T06:30:06.312Z,2.60
2018-03-09T06:32:33.793Z,2.60
2018-03-09T06:35:02.093Z,2.60
2018-03-09T06:37:29.579Z,2.60
2018-03-09T06:39:57.060Z,2.70
2018-03-09T06:42:24.579Z,2.70
2018-03-09T06:44:52.834Z,2.80
2018-03-09T06:47:20.369Z,2.80
2018-03-09T06:49:48.643Z,2.80
2018-03-09T06:52:16.178Z,2.80
2018-03-09T06:54:43.656Z,2.80
2018-03-09T06:57:11.152Z,2.90
2018-03-09T06:59:38.684Z,2.90
2018-03-09T07:02:06.184Z,3.10
2018-03-09T07:04:33.690Z,3.10
2018-03-09T07:07:01.180Z,3.30
2018-03-09T07:09:28.715Z,3.40
2018-03-09T07:11:56.234Z,3.30
2018-03-09T07:14:23.715Z,3.30
2018-03-09T07:16:51.212Z,3.30
2018-03-09T07:19:18.676Z,3.40
2018-03-09T07:21:46.164Z,3.50
2018-03-09T07:24:13.730Z,3.50
2018-03-09T07:26:41.255Z,3.50
2018-03-09T07:29:15.063Z,3.50
2018-03-09T07:31:42.544Z,3.40
2018-03-09T07:34:10.037Z,3.30
2018-03-09T07:36:37.546Z,3.40
2018-03-09T07:39:05.023Z,3.40
2018-03-09T07:41:32.936Z,3.50
2018-03-09T07:44:00.494Z,3.60
2018-03-09T07:46:28.127Z,3.50
2018-03-09T07:48:55.621Z,3.60
2018-03-09T07:51:23.110Z,3.70
2018-03-09T07:53:50.627Z,3.70
2018-03-09T07:56:18.142Z,3.70
2018-03-09T07:58:45.623Z,3.60
2018-03-09T08:01:13.137Z,3.60
2018-03-09T08:03:40.636Z,3.50
2018-03-09T08:06:08.152Z,3.60
2018-03-09T08:08:35.716Z,3.60
2018-03-09T08:11:03.430Z,3.60
2018-03-09T08:13:31.691Z,3.70
2018-03-09T08:15:59.223Z,3.70
2018-03-09T08:18:26.777Z,3.80
2018-03-09T08:20:54.311Z,3.80
2018-03-09T08:23:21.848Z,3.90
2018-03-09T08:25:50.188Z,4.00
2018-03-09T08:28:17.656Z,4.00
2018-03-09T08:30:45.193Z,4.00
2018-03-09T08:33:12.979Z,4.10
2018-03-09T08:35:40.483Z,4.20
2018-03-09T08:38:08.014Z,4.50
2018-03-09T08:40:36.292Z,4.30
2018-03-09T08:43:04.579Z,4.30
2018-03-09T08:45:32.079Z,4.30
2018-03-09T08:47:59.648Z,4.50
2018-03-09T08:50:27.209Z,4.50
2018-03-09T08:52:54.683Z,4.50
2018-03-09T08:55:22.182Z,4.60
2018-03-09T08:57:49.693Z,4.80
2018-03-09T09:00:17.215Z,4.90
2018-03-09T09:02:44.746Z,5.10
2018-03-09T09:05:12.768Z,5.00
2018-03-09T09:07:40.280Z,5.10
2018-03-09T09:10:14.027Z,5.10
2018-03-09T09:12:41.536Z,5.20
2018-03-09T09:15:09.024Z,5.40
2018-03-09T09:17:36.498Z,6.00
2018-03-09T09:20:03.991Z,5.60
2018-03-09T09:22:38.687Z,5.70
2018-03-09T09:25:06.242Z,5.60
2018-03-09T09:27:33.790Z,5.70
2018-03-09T09:30:03.254Z,5.90
2018-03-09T09:32:30.779Z,5.90
2018-03-09T09:34:59.213Z,5.90
2018-03-09T09:37:27.155Z,5.90
2018-03-09T09:39:55.436Z,6.10
2018-03-09T09:42:22.964Z,6.10
2018-03-09T09:44:50.521Z,6.20
2018-03-09T09:47:18.012Z,6.20
2018-03-09T09:49:53.026Z,6.10
2018-03-09T09:52:20.586Z,6.10
2018-03-09T09:54:48.879Z,6.10
2018-03-09T09:57:17.160Z,6.10
2018-03-09T09:59:44.676Z,6.10
2018-03-09T10:02:12.182Z,6.30
2018-03-09T10:04:39.688Z,6.20
2018-03-09T10:07:07.182Z,6.30
2018-03-09T10:09:35.462Z,6.50
2018-03-09T10:12:03.725Z,6.60
2018-03-09T10:14:32.043Z,6.70
2018-03-09T10:16:59.561Z,6.70
2018-03-09T10:19:27.039Z,6.80
2018-03-09T10:21:54.535Z,6.70
2018-03-09T10:24:22.326Z,6.70
2018-03-09T10:26:49.836Z,6.50
2018-03-09T10:29:17.332Z,6.50
2018-03-09T10:31:44.842Z,6.50
2018-03-09T10:34:12.336Z,6.60
2018-03-09T10:36:39.822Z,6.70
2018-03-09T10:39:07.338Z,6.90
2018-03-09T10:41:34.841Z,7.10
2018-03-09T10:44:03.170Z,7.10
2018-03-09T10:46:31.431Z,7.20
2018-03-09T10:48:58.947Z,7.20
2018-03-09T10:51:26.450Z,7.20
2018-03-09T10:53:53.950Z,7.10
2018-03-09T10:56:21.450Z,7.30
2018-03-09T10:58:48.972Z,7.20
2018-03-09T11:01:16.472Z,7.30
2018-03-09T11:03:44.005Z,7.40
2018-03-09T11:06:11.541Z,7.60
2018-03-09T11:08:39.037Z,7.50
2018-03-09T11:11:06.538Z,7.70
2018-03-09T11:13:34.082Z,7.90
2018-03-09T11:16:01.531Z,8.00
2018-03-09T11:18:28.996Z,7.80
2018-03-09T11:20:56.479Z,7.90
2018-03-09T11:23:23.990Z,7.70
2018-03-09T11:25:51.476Z,7.50
2018-03-09T11:28:18.966Z,7.30
2018-03-09T11:30:46.449Z,7.30
2018-03-09T11:33:13.979Z,7.40
2018-03-09T11:35:41.475Z,7.40
2018-03-09T11:38:08.975Z,7.50
2018-03-09T11:40:36.500Z,7.50
2018-03-09T11:43:04.000Z,7.50
2018-03-09T11:45:31.497Z,7.50
2018-03-09T11:47:59.787Z,7.50
2018-03-09T11:50:27.323Z,7.50
2018-03-09T11:52:55.619Z,7.60
2018-03-09T11:55:23.141Z,7.60
2018-03-09T11:57:50.647Z,7.70
2018-03-09T12:00:18.198Z,7.80
2018-03-09T12:02:45.704Z,7.90
2018-03-09T12:05:13.243Z,8.20
2018-03-09T12:07:40.752Z,8.30
2018-03-09T12:10:08.223Z,8.20
2018-03-09T12:12:35.754Z,8.00
2018-03-09T12:15:03.270Z,8.00
2018-03-09T12:17:30.786Z,7.80
2018-03-09T12:19:58.270Z,7.90
2018-03-09T12:22:25.760Z,7.90
2018-03-09T12:24:53.266Z,8.00
2018-03-09T12:27:20.762Z,8.20
2018-03-09T12:29:48.295Z,8.20
2018-03-09T12:32:16.431Z,8.10
2018-03-09T12:34:43.924Z,8.10
2018-03-09T12:37:11.881Z,8.00
2018-03-09T12:39:39.389Z,8.00
2018-03-09T12:42:06.901Z,8.10
2018-03-09T12:44:34.404Z,8.20
2018-03-09T12:47:02.653Z,8.20
2018-03-09T12:49:30.152Z,8.20
2018-03-09T12:51:57.648Z,8.30
2018-03-09T12:54:25.158Z,8.30
2018-03-09T12:56:52.658Z,8.20
2018-03-09T12:59:20.483Z,8.20
2018-03-09T13:01:47.984Z,8.20
2018-03-09T13:04:15.477Z,8.00
2018-03-09T13:06:42.968Z,8.10
2018-03-09T13:09:11.315Z,7.90
2018-03-09T13:11:38.844Z,7.90
2018-03-09T13:14:12.117Z,7.90
2018-03-09T13:16:55.716Z,7.60
2018-03-09T13:19:23.248Z,7.60
2018-03-09T13:21:50.744Z,7.50
2018-03-09T13:24:18.231Z,7.50
2018-03-09T13:26:46.534Z,7.40
2018-03-09T13:29:14.004Z,7.40
2018-03-09T13:31:41.503Z,7.40
2018-03-09T13:34:09.032Z,7.30
2018-03-09T13:36:36.556Z,7.20
2018-03-09T13:39:04.075Z,7.20
2018-03-09T13:41:31.587Z,7.30
2018-03-09T13:43:59.128Z,7.20
2018-03-09T13:46:26.635Z,7.30
2018-03-09T13:48:54.117Z,7.20
2018-03-09T13:51:21.651Z,7.30
2018-03-09T13:53:49.157Z,7.30
2018-03-09T13:56:16.644Z,7.30
2018-03-09T13:58:44.126Z,7.30
2018-03-09T14:01:11.624Z,7.40
2018-03-09T14:03:39.175Z,7.40
2018-03-09T14:06:06.644Z,7.30
2018-03-09T14:08:34.166Z,7.30
2018-03-09T14:11:02.421Z,7.60
2018-03-09T14:13:29.882Z,7.60
2018-03-09T14:15:57.405Z,7.50
2018-03-09T14:18:24.908Z,7.30
2018-03-09T14:20:52.552Z,7.30
2018-03-09T14:23:19.896Z,7.40
2018-03-09T14:25:47.381Z,7.50
2018-03-09T14:28:14.871Z,7.50
2018-03-09T14:30:42.375Z,7.40
2018-03-09T14:33:09.878Z,7.40
2018-03-09T14:35:38.154Z,7.30
2018-03-09T14:38:12.711Z,7.30
2018-03-09T14:40:40.210Z,7.20
2018-03-09T14:43:07.701Z,7.30
2018-03-09T14:45:35.972Z,7.40
2018-03-09T14:48:04.278Z,7.30
2018-03-09T14:50:31.726Z,7.30
2018-03-09T14:52:59.210Z,7.20
2018-03-09T14:55:26.685Z,7.30
2018-03-09T14:57:54.229Z,7.30
2018-03-09T15:00:21.700Z,7.20
2018-03-09T15:02:49.222Z,7.30
2018-03-09T15:05:16.706Z,7.30
2018-03-09T15:07:44.195Z,7.40
2018-03-09T15:10:12.470Z,7.30
2018-03-09T15:12:40.751Z,7.30
2018-03-09T15:15:08.257Z,7.30
2018-03-09T15:17:35.984Z,7.30
2018-03-09T15:20:03.461Z,7.20
2018-03-09T15:22:30.958Z,7.20
2018-03-09T15:24:58.445Z,7.20
2018-03-09T15:27:25.976Z,7.30
2018-03-09T15:29:53.458Z,7.20
2018-03-09T15:32:20.938Z,7.20
2018-03-09T15:34:54.042Z,7.10
2018-03-09T15:37:21.506Z,7.10
2018-03-09T15:39:49.018Z,7.10
2018-03-09T15:42:17.270Z,7.00
2018-03-09T15:44:44.754Z,7.00
2018-03-09T15:47:12.330Z,7.00
2018-03-09T15:49:39.821Z,6.90
2018-03-09T15:52:07.656Z,6.90
2018-03-09T15:54:35.917Z,6.90
2018-03-09T15:57:04.193Z,6.90
2018-03-09T15:59:32.492Z,6.90
2018-03-09T16:01:59.997Z,6.80
2018-03-09T16:04:27.504Z,6.90
2018-03-09T16:06:54.981Z,6.90
2018-03-09T16:09:22.468Z,6.90
2018-03-09T16:11:50.016Z,7.00
2018-03-09T16:14:17.490Z,7.00
2018-03-09T16:16:44.993Z,7.00
2018-03-09T16:19:12.490Z,7.00
2018-03-09T16:21:40.002Z,7.00
2018-03-09T16:24:08.280Z,7.00
2018-03-09T16:26:36.585Z,7.00
2018-03-09T16:29:04.115Z,7.00
2018-03-09T16:31:31.611Z,7.00
2018-03-09T16:33:59.120Z,7.10
2018-03-09T16:36:27.850Z,7.00
2018-03-09T16:38:55.343Z,6.90
2018-03-09T16:41:22.848Z,7.00
2018-03-09T16:43:50.364Z,7.00
2018-03-09T16:46:17.877Z,7.00
2018-03-09T16:48:45.383Z,7.10
2018-03-09T16:51:12.915Z,7.10
2018-03-09T16:53:40.417Z,7.10
2018-03-09T16:56:08.667Z,7.10
2018-03-09T16:58:36.169Z,7.10
2018-03-09T17:01:03.728Z,7.10
2018-03-09T17:03:31.207Z,7.00
2018-03-09T17:05:58.723Z,7.10
2018-03-09T17:08:27.001Z,7.10
2018-03-09T17:10:55.249Z,7.10
2018-03-09T17:13:22.785Z,7.10
2018-03-09T17:15:50.287Z,7.20
2018-03-09T17:18:18.555Z,7.20
2018-03-09T17:20:46.825Z,7.10
2018-03-09T17:23:14.300Z,7.10
2018-03-09T17:25:42.591Z,7.20
2018-03-09T17:28:10.090Z,7.20
2018-03-09T17:30:37.600Z,7.20
2018-03-09T17:33:05.100Z,7.20
2018-03-09T17:35:32.589Z,7.20
2018-03-09T17:38:00.099Z,7.20
2018-03-09T17:40:27.587Z,7.30
2018-03-09T17:42:55.133Z,7.20
2018-03-09T17:45:22.653Z,7.30
2018-03-09T17:47:50.150Z,7.20
2018-03-09T17:50:17.643Z,7.20
2018-03-09T17:52:45.891Z,7.10
2018-03-09T17:55:13.424Z,7.10
2018-03-09T17:57:40.939Z,7.10
2018-03-09T18:00:08.423Z,7.10
2018-03-09T18:02:35.923Z,7.20
2018-03-09T18:05:03.405Z,7.20
2018-03-09T18:07:30.929Z,7.20
2018-03-09T18:09:58.434Z,7.10
2018-03-09T18:12:26.722Z,7.00
2018-03-09T18:14:54.228Z,7.00
2018-03-09T18:17:21.744Z,7.00
2018-03-09T18:19:49.266Z,7.10
2018-03-09T18:22:16.786Z,7.10
2018-03-09T18:24:44.272Z,7.20
2018-03-09T18:27:11.801Z,7.20
2018-03-09T18:29:39.307Z,7.20
2018-03-09T18:32:06.855Z,7.10
2018-03-09T18:34:34.352Z,7.10
2018-03-09T18:37:01.848Z,7.10
2018-03-09T18:39:29.367Z,7.10
2018-03-09T18:41:57.723Z,7.00
2018-03-09T18:44:25.186Z,7.00
2018-03-09T18:46:52.929Z,6.90
2018-03-09T18:49:20.410Z,7.00
2018-03-09T18:51:48.690Z,7.10
2018-03-09T18:54:16.258Z,7.10
2018-03-09T18:56:43.793Z,7.10
2018-03-09T18:59:12.079Z,7.20
2018-03-09T19:01:40.344Z,7.00
2018-03-09T19:04:08.622Z,7.00
2018-03-09T19:06:36.122Z,7.00
2018-03-09T19:09:03.644Z,7.00
2018-03-09T19:11:31.937Z,7.10
2018-03-09T19:13:59.460Z,7.10
2018-03-09T19:16:27.016Z,7.10
2018-03-09T19:18:54.514Z,7.00
2018-03-09T19:21:22.046Z,7.10
2018-03-09T19:23:49.551Z,7.10
2018-03-09T19:26:17.023Z,7.00
2018-03-09T19:28:44.551Z,7.00
2018-03-09T19:31:12.058Z,7.00
2018-03-09T19:33:39.650Z,7.10
2018-03-09T19:36:07.185Z,7.10
2018-03-09T19:38:35.524Z,7.00
2018-03-09T19:41:03.033Z,7.00
2018-03-09T19:43:31.347Z,7.00
2018-03-09T19:45:59.613Z,7.00
2018-03-09T19:48:27.132Z,6.90
2018-03-09T19:50:54.626Z,7.00
2018-03-09T19:53:22.142Z,7.00
2018-03-09T19:55:49.629Z,6.90
2018-03-09T19:58:17.941Z,6.80
2018-03-09T20:00:45.435Z,6.80
2018-03-09T20:03:12.922Z,6.80
2018-03-09T20:05:40.700Z,6.80
2018-03-09T20:08:08.190Z,6.80
2018-03-09T20:10:35.686Z,6.80
2018-03-09T20:13:03.186Z,6.80
2018-03-09T20:15:30.700Z,6.80
2018-03-09T20:17:59.011Z,6.90
2018-03-09T20:20:26.499Z,6.90
2018-03-09T20:22:53.998Z,7.00
2018-03-09T20:25:21.569Z,6.90
2018-03-09T20:27:49.076Z,6.90
2018-03-09T20:30:16.642Z,6.90
2018-03-09T20:32:44.178Z,6.90
2018-03-09T20:35:11.698Z,6.80
2018-03-09T20:37:39.970Z,6.80
2018-03-09T20:40:07.476Z,6.70
2018-03-09T20:42:35.035Z,6.80
2018-03-09T20:45:02.537Z,6.90
2018-03-09T20:47:30.069Z,6.80
2018-03-09T20:49:57.575Z,6.90
2018-03-09T20:52:25.059Z,6.90
2018-03-09T20:54:52.588Z,6.90
2018-03-09T20:57:20.106Z,6.90
2018-03-09T20:59:47.638Z,6.90
2018-03-09T21:02:15.228Z,6.90
2018-03-09T21:04:42.714Z,6.90
2018-03-09T21:07:10.259Z,6.90
2018-03-09T21:09:37.753Z,6.90
2018-03-09T21:12:05.291Z,6.90
2018-03-09T21:14:33.559Z,6.90
2018-03-09T21:17:01.807Z,6.90
2018-03-09T21:19:29.332Z,6.90
2018-03-09T21:21:56.823Z,6.90
2018-03-09T21:24:24.351Z,6.90
2018-03-09T21:26:51.899Z,6.80
2018-03-09T21:29:19.399Z,6.80
2018-03-09T21:31:46.914Z,6.80
2018-03-09T21:34:14.395Z,6.80
2018-03-09T21:36:41.921Z,6.80
2018-03-09T21:39:09.411Z,6.90
2018-03-09T21:41:36.905Z,6.80
2018-03-09T21:44:04.410Z,6.80
2018-03-09T21:46:31.901Z,6.80
2018-03-09T21:48:59.416Z,6.80
2018-03-09T21:51:26.917Z,6.80
2018-03-09T21:53:54.403Z,6.70
2018-03-09T21:56:22.683Z,6.70
2018-03-09T21:58:50.187Z,6.70
2018-03-09T22:01:17.693Z,6.60
2018-03-09T22:03:45.190Z,6.70
2018-03-09T22:06:12.670Z,6.70
2018-03-09T22:08:40.182Z,6.60
2018-03-09T22:11:07.654Z,6.60
2018-03-09T22:13:35.173Z,6.50
2018-03-09T22:16:02.671Z,6.50
2018-03-09T22:18:30.163Z,6.50
2018-03-09T22:20:58.433Z,6.40
2018-03-09T22:23:26.692Z,6.40
2018-03-09T22:25:54.198Z,6.40
2018-03-09T22:28:21.723Z,6.40
2018-03-09T22:30:49.210Z,6.40
2018-03-09T22:33:16.710Z,6.50
2018-03-09T22:35:44.209Z,6.50
2018-03-09T22:38:11.716Z,6.50
2018-03-09T22:40:39.203Z,6.50
2018-03-09T22:43:06.702Z,6.50
2018-03-09T22:45:34.199Z,6.50
2018-03-09T22:48:01.691Z,6.40
2018-03-09T22:50:29.205Z,6.50
2018-03-09T22:52:56.696Z,6.50
2018-03-09T22:55:24.217Z,6.50
2018-03-09T22:57:51.714Z,6.50
2018-03-09T23:00:19.235Z,6.60
2018-03-09T23:02:46.744Z,6.60
2018-03-09T23:05:15.094Z,6.60
2018-03-09T23:07:42.574Z,6.60
2018-03-09T23:10:10.065Z,6.60
2018-03-09T23:12:38.296Z,6.60
2018-03-09T23:15:05.791Z,6.60
2018-03-09T23:17:34.052Z,6.70
2018-03-09T23:20:01.546Z,6.60
2018-03-09T23:22:29.803Z,6.80
2018-03-09T23:24:58.055Z,6.80
2018-03-09T23:27:25.543Z,6.80
2018-03-09T23:29:53.824Z,6.90
2018-03-09T23:32:22.106Z,6.90
2018-03-09T23:34:50.362Z,6.80
2018-03-09T23:37:18.604Z,6.80
2018-03-09T23:39:46.094Z,6.80
2018-03-09T23:42:14.354Z,6.80
2018-03-09T23:44:41.846Z,6.80
2018-03-09T23:47:10.104Z,6.60
2018-03-09T23:49:37.610Z,6.60
2018-03-09T23:52:05.177Z,6.60
2018-03-09T23:54:32.674Z,6.60
2018-03-09T23:57:00.953Z,6.70
2018-03-09T23:59:29.228Z,6.70
